Port Clinton, Ohio
Current Conditions -  °F | °C
As of 4:12 AM on Friday 19 Dec 2014 (Local Time) from KPCW Reporting Station
Overcast Overcast  
Wind Chill: 25°   Ceiling: 1100
Heat Index: 32°   Visibility: 10mi
Dew Point: 28°   Wind: 8mph
Humidity: 87%   Direction: 270°W
Pressure: 30.19"   Gusts: NA
Location:  41.51°N, 82.94°W
Report Text: KPCW 190912Z AUTO 27007KT 10SM OVC011 00/M02 A3019 RMK AO2 $
Loading
Personal Weather Stations






























Interactive Weather Map New forecast layout! Learn more

10-Day Weather Forecast

Advertisements
Track Severe Weather on mobile